sensor_id;sensor_type;location;lat;lon;timestamp;P1;durP1;ratioP1;P2;durP2;ratioP2
35745;SDS011;21870;42.812;74.628;2023-04-19T00:01:06;29.40;;;24.92;;
35745;SDS011;21870;42.812;74.628;2023-04-19T00:03:32;30.90;;;27.42;;
35745;SDS011;21870;42.812;74.628;2023-04-19T00:05:58;41.70;;;27.05;;
35745;SDS011;21870;42.812;74.628;2023-04-19T00:08:25;28.67;;;25.60;;
35745;SDS011;21870;42.812;74.628;2023-04-19T00:10:51;32.15;;;25.10;;
35745;SDS011;21870;42.812;74.628;2023-04-19T00:13:17;31.75;;;28.38;;
35745;SDS011;21870;42.812;74.628;2023-04-19T00:15:43;35.33;;;27.67;;
35745;SDS011;21870;42.812;74.628;2023-04-19T00:18:09;30.98;;;26.70;;
35745;SDS011;21870;42.812;74.628;2023-04-19T00:20:35;47.05;;;40.20;;
35745;SDS011;21870;42.812;74.628;2023-04-19T00:23:02;42.75;;;36.05;;
35745;SDS011;21870;42.812;74.628;2023-04-19T00:25:28;29.70;;;24.80;;
35745;SDS011;21870;42.812;74.628;2023-04-19T00:27:56;28.80;;;24.95;;
35745;SDS011;21870;42.812;74.628;2023-04-19T00:30:22;31.17;;;25.10;;
35745;SDS011;21870;42.812;74.628;2023-04-19T00:32:48;26.90;;;24.08;;
35745;SDS011;21870;42.812;74.628;2023-04-19T00:35:14;33.17;;;27.83;;
35745;SDS011;21870;42.812;74.628;2023-04-19T00:37:40;36.88;;;29.38;;
35745;SDS011;21870;42.812;74.628;2023-04-19T00:40:07;28.35;;;24.45;;
35745;SDS011;21870;42.812;74.628;2023-04-19T00:42:33;29.40;;;24.55;;
35745;SDS011;21870;42.812;74.628;2023-04-19T00:45:00;32.25;;;26.42;;
35745;SDS011;21870;42.812;74.628;2023-04-19T00:47:26;27.23;;;24.33;;
35745;SDS011;21870;42.812;74.628;2023-04-19T00:49:52;31.90;;;23.48;;
35745;SDS011;21870;42.812;74.628;2023-04-19T00:52:19;30.95;;;24.02;;
35745;SDS011;21870;42.812;74.628;2023-04-19T00:54:46;30.42;;;25.88;;
35745;SDS011;21870;42.812;74.628;2023-04-19T00:57:14;25.95;;;22.98;;
35745;SDS011;21870;42.812;74.628;2023-04-19T00:59:40;30.10;;;25.23;;
35745;SDS011;21870;42.812;74.628;2023-04-19T01:02:08;30.02;;;24.13;;
35745;SDS011;21870;42.812;74.628;2023-04-19T01:04:34;27.85;;;23.40;;
35745;SDS011;21870;42.812;74.628;2023-04-19T01:07:01;27.23;;;22.88;;
35745;SDS011;21870;42.812;74.628;2023-04-19T01:09:27;29.65;;;22.85;;
35745;SDS011;21870;42.812;74.628;2023-04-19T01:11:53;26.98;;;23.10;;
35745;SDS011;21870;42.812;74.628;2023-04-19T01:14:20;29.63;;;24.60;;
35745;SDS011;21870;42.812;74.628;2023-04-19T01:16:46;25.65;;;23.05;;
35745;SDS011;21870;42.812;74.628;2023-04-19T01:19:12;27.48;;;23.77;;
35745;SDS011;21870;42.812;74.628;2023-04-19T01:21:38;28.98;;;24.77;;
35745;SDS011;21870;42.812;74.628;2023-04-19T01:24:04;25.90;;;22.17;;
35745;SDS011;21870;42.812;74.628;2023-04-19T01:26:31;24.40;;;21.77;;
35745;SDS011;21870;42.812;74.628;2023-04-19T01:28:57;25.05;;;22.48;;
35745;SDS011;21870;42.812;74.628;2023-04-19T01:31:23;23.38;;;20.95;;
35745;SDS011;21870;42.812;74.628;2023-04-19T01:33:52;25.25;;;20.70;;
35745;SDS011;21870;42.812;74.628;2023-04-19T01:36:18;26.08;;;21.63;;
35745;SDS011;21870;42.812;74.628;2023-04-19T01:38:44;25.13;;;21.02;;
35745;SDS011;21870;42.812;74.628;2023-04-19T01:41:12;28.63;;;20.63;;
35745;SDS011;21870;42.812;74.628;2023-04-19T01:43:38;26.52;;;20.27;;
35745;SDS011;21870;42.812;74.628;2023-04-19T01:46:04;26.70;;;19.35;;
35745;SDS011;21870;42.812;74.628;2023-04-19T01:48:30;24.80;;;22.20;;
35745;SDS011;21870;42.812;74.628;2023-04-19T01:50:56;27.73;;;24.38;;
35745;SDS011;21870;42.812;74.628;2023-04-19T01:53:22;26.52;;;23.83;;
35745;SDS011;21870;42.812;74.628;2023-04-19T01:55:48;28.60;;;25.52;;
35745;SDS011;21870;42.812;74.628;2023-04-19T01:58:17;27.10;;;22.83;;
35745;SDS011;21870;42.812;74.628;2023-04-19T02:00:43;28.60;;;23.52;;
35745;SDS011;21870;42.812;74.628;2023-04-19T02:03:10;29.60;;;25.13;;
35745;SDS011;21870;42.812;74.628;2023-04-19T02:05:37;27.65;;;24.52;;
35745;SDS011;21870;42.812;74.628;2023-04-19T02:08:03;27.85;;;23.20;;
35745;SDS011;21870;42.812;74.628;2023-04-19T02:10:30;26.65;;;23.00;;
35745;SDS011;21870;42.812;74.628;2023-04-19T02:12:56;30.23;;;23.90;;
35745;SDS011;21870;42.812;74.628;2023-04-19T02:15:22;26.67;;;22.83;;
35745;SDS011;21870;42.812;74.628;2023-04-19T02:17:48;27.15;;;24.10;;
35745;SDS011;21870;42.812;74.628;2023-04-19T02:20:14;27.73;;;24.17;;
35745;SDS011;21870;42.812;74.628;2023-04-19T02:22:40;29.77;;;24.27;;
35745;SDS011;21870;42.812;74.628;2023-04-19T02:25:08;29.45;;;24.92;;
35745;SDS011;21870;42.812;74.628;2023-04-19T02:27:34;27.85;;;24.33;;
35745;SDS011;21870;42.812;74.628;2023-04-19T02:30:00;31.58;;;25.02;;
35745;SDS011;21870;42.812;74.628;2023-04-19T02:32:26;27.52;;;23.77;;
35745;SDS011;21870;42.812;74.628;2023-04-19T02:34:52;30.27;;;24.42;;
35745;SDS011;21870;42.812;74.628;2023-04-19T02:37:19;32.65;;;23.98;;
35745;SDS011;21870;42.812;74.628;2023-04-19T02:39:45;30.98;;;23.95;;
35745;SDS011;21870;42.812;74.628;2023-04-19T02:42:11;25.88;;;23.17;;
35745;SDS011;21870;42.812;74.628;2023-04-19T02:44:37;27.50;;;23.55;;
35745;SDS011;21870;42.812;74.628;2023-04-19T02:47:03;29.15;;;25.08;;
35745;SDS011;21870;42.812;74.628;2023-04-19T02:49:29;26.15;;;22.48;;
35745;SDS011;21870;42.812;74.628;2023-04-19T02:52:01;30.02;;;24.75;;
35745;SDS011;21870;42.812;74.628;2023-04-19T02:54:27;29.67;;;25.55;;
35745;SDS011;21870;42.812;74.628;2023-04-19T02:56:53;39.88;;;26.38;;
35745;SDS011;21870;42.812;74.628;2023-04-19T02:59:19;32.33;;;24.58;;
35745;SDS011;21870;42.812;74.628;2023-04-19T03:01:45;26.60;;;22.63;;
35745;SDS011;21870;42.812;74.628;2023-04-19T03:04:11;30.23;;;24.52;;
35745;SDS011;21870;42.812;74.628;2023-04-19T03:06:37;33.30;;;25.50;;
35745;SDS011;21870;42.812;74.628;2023-04-19T03:09:03;27.40;;;23.73;;
35745;SDS011;21870;42.812;74.628;2023-04-19T03:11:29;29.70;;;24.65;;
35745;SDS011;21870;42.812;74.628;2023-04-19T03:13:55;30.40;;;24.23;;
35745;SDS011;21870;42.812;74.628;2023-04-19T03:16:21;30.10;;;24.23;;
35745;SDS011;21870;42.812;74.628;2023-04-19T03:18:47;32.00;;;24.83;;
35745;SDS011;21870;42.812;74.628;2023-04-19T03:21:14;26.95;;;24.02;;
35745;SDS011;21870;42.812;74.628;2023-04-19T03:23:40;30.40;;;23.85;;
35745;SDS011;21870;42.812;74.628;2023-04-19T03:26:06;31.00;;;24.50;;
35745;SDS011;21870;42.812;74.628;2023-04-19T03:28:33;32.95;;;24.25;;
35745;SDS011;21870;42.812;74.628;2023-04-19T03:30:59;30.90;;;23.80;;
35745;SDS011;21870;42.812;74.628;2023-04-19T03:33:26;34.10;;;25.98;;
35745;SDS011;21870;42.812;74.628;2023-04-19T03:35:52;36.28;;;25.40;;
35745;SDS011;21870;42.812;74.628;2023-04-19T03:38:18;37.17;;;24.58;;
35745;SDS011;21870;42.812;74.628;2023-04-19T03:40:46;33.83;;;23.45;;
35745;SDS011;21870;42.812;74.628;2023-04-19T03:43:12;39.38;;;23.95;;
35745;SDS011;21870;42.812;74.628;2023-04-19T03:45:39;34.20;;;23.92;;
35745;SDS011;21870;42.812;74.628;2023-04-19T03:48:05;33.92;;;23.98;;
35745;SDS011;21870;42.812;74.628;2023-04-19T03:50:31;37.72;;;22.98;;
35745;SDS011;21870;42.812;74.628;2023-04-19T03:52:57;30.35;;;23.20;;
35745;SDS011;21870;42.812;74.628;2023-04-19T03:55:23;34.92;;;24.42;;
35745;SDS011;21870;42.812;74.628;2023-04-19T03:57:49;27.33;;;22.88;;
35745;SDS011;21870;42.812;74.628;2023-04-19T04:00:15;28.83;;;24.70;;
35745;SDS011;21870;42.812;74.628;2023-04-19T04:02:42;43.97;;;26.00;;
35745;SDS011;21870;42.812;74.628;2023-04-19T04:05:08;37.78;;;26.27;;
35745;SDS011;21870;42.812;74.628;2023-04-19T04:07:34;31.85;;;24.50;;
35745;SDS011;21870;42.812;74.628;2023-04-19T04:10:00;38.92;;;27.45;;
35745;SDS011;21870;42.812;74.628;2023-04-19T04:12:26;35.75;;;24.30;;
35745;SDS011;21870;42.812;74.628;2023-04-19T04:14:52;38.53;;;27.33;;
35745;SDS011;21870;42.812;74.628;2023-04-19T04:17:18;34.80;;;27.08;;
35745;SDS011;21870;42.812;74.628;2023-04-19T04:19:45;41.03;;;26.50;;
35745;SDS011;21870;42.812;74.628;2023-04-19T04:22:11;32.83;;;26.67;;
35745;SDS011;21870;42.812;74.628;2023-04-19T04:24:40;39.90;;;28.35;;
35745;SDS011;21870;42.812;74.628;2023-04-19T04:27:07;46.13;;;29.25;;
35745;SDS011;21870;42.812;74.628;2023-04-19T04:29:36;35.85;;;25.85;;
35745;SDS011;21870;42.812;74.628;2023-04-19T04:32:04;43.58;;;28.02;;
35745;SDS011;21870;42.812;74.628;2023-04-19T04:34:34;41.00;;;30.05;;
35745;SDS011;21870;42.812;74.628;2023-04-19T04:37:01;42.40;;;28.92;;
35745;SDS011;21870;42.812;74.628;2023-04-19T04:39:28;38.35;;;26.45;;
35745;SDS011;21870;42.812;74.628;2023-04-19T04:41:54;40.35;;;27.20;;
35745;SDS011;21870;42.812;74.628;2023-04-19T04:44:23;34.38;;;27.30;;
35745;SDS011;21870;42.812;74.628;2023-04-19T04:46:49;42.58;;;30.02;;
35745;SDS011;21870;42.812;74.628;2023-04-19T04:49:15;43.45;;;27.38;;
35745;SDS011;21870;42.812;74.628;2023-04-19T04:51:41;37.75;;;26.95;;
35745;SDS011;21870;42.812;74.628;2023-04-19T04:54:07;40.50;;;29.60;;
35745;SDS011;21870;42.812;74.628;2023-04-19T04:56:34;38.15;;;27.95;;
35745;SDS011;21870;42.812;74.628;2023-04-19T04:59:00;35.13;;;29.38;;
35745;SDS011;21870;42.812;74.628;2023-04-19T05:01:26;39.38;;;30.73;;
35745;SDS011;21870;42.812;74.628;2023-04-19T05:03:52;40.75;;;29.60;;
35745;SDS011;21870;42.812;74.628;2023-04-19T05:06:19;40.63;;;27.55;;
35745;SDS011;21870;42.812;74.628;2023-04-19T05:08:45;41.58;;;28.05;;
35745;SDS011;21870;42.812;74.628;2023-04-19T05:11:11;36.90;;;27.90;;
35745;SDS011;21870;42.812;74.628;2023-04-19T05:13:37;37.00;;;27.60;;
35745;SDS011;21870;42.812;74.628;2023-04-19T05:16:06;38.65;;;26.10;;
35745;SDS011;21870;42.812;74.628;2023-04-19T05:18:32;40.10;;;28.98;;
35745;SDS011;21870;42.812;74.628;2023-04-19T05:20:59;39.10;;;29.08;;
35745;SDS011;21870;42.812;74.628;2023-04-19T05:23:25;35.28;;;26.52;;
35745;SDS011;21870;42.812;74.628;2023-04-19T05:25:51;30.90;;;27.50;;
35745;SDS011;21870;42.812;74.628;2023-04-19T05:28:17;32.90;;;28.45;;
35745;SDS011;21870;42.812;74.628;2023-04-19T05:30:43;35.40;;;27.63;;
35745;SDS011;21870;42.812;74.628;2023-04-19T05:33:10;29.73;;;25.70;;
35745;SDS011;21870;42.812;74.628;2023-04-19T05:35:36;35.60;;;26.48;;
35745;SDS011;21870;42.812;74.628;2023-04-19T05:38:02;37.17;;;26.88;;
35745;SDS011;21870;42.812;74.628;2023-04-19T05:40:28;32.60;;;27.50;;
35745;SDS011;21870;42.812;74.628;2023-04-19T05:42:54;36.45;;;29.92;;
35745;SDS011;21870;42.812;74.628;2023-04-19T05:45:20;34.75;;;27.52;;
35745;SDS011;21870;42.812;74.628;2023-04-19T05:47:47;33.03;;;28.13;;
35745;SDS011;21870;42.812;74.628;2023-04-19T05:50:13;31.30;;;26.17;;
35745;SDS011;21870;42.812;74.628;2023-04-19T05:52:44;36.25;;;28.33;;
35745;SDS011;21870;42.812;74.628;2023-04-19T05:55:10;39.25;;;30.38;;
35745;SDS011;21870;42.812;74.628;2023-04-19T05:57:37;32.85;;;27.15;;
35745;SDS011;21870;42.812;74.628;2023-04-19T06:00:03;33.05;;;29.58;;
35745;SDS011;21870;42.812;74.628;2023-04-19T06:02:30;35.33;;;28.33;;
35745;SDS011;21870;42.812;74.628;2023-04-19T06:04:56;29.42;;;26.23;;
35745;SDS011;21870;42.812;74.628;2023-04-19T06:07:22;31.58;;;28.42;;
35745;SDS011;21870;42.812;74.628;2023-04-19T06:09:48;30.48;;;27.33;;
35745;SDS011;21870;42.812;74.628;2023-04-19T06:12:14;34.75;;;26.88;;
35745;SDS011;21870;42.812;74.628;2023-04-19T06:14:40;35.38;;;27.42;;
35745;SDS011;21870;42.812;74.628;2023-04-19T06:17:09;34.80;;;28.42;;
35745;SDS011;21870;42.812;74.628;2023-04-19T06:19:35;32.63;;;27.77;;
35745;SDS011;21870;42.812;74.628;2023-04-19T06:22:01;38.85;;;26.08;;
35745;SDS011;21870;42.812;74.628;2023-04-19T06:24:27;34.35;;;27.13;;
35745;SDS011;21870;42.812;74.628;2023-04-19T06:26:53;34.22;;;28.02;;
35745;SDS011;21870;42.812;74.628;2023-04-19T06:29:19;31.35;;;27.00;;
35745;SDS011;21870;42.812;74.628;2023-04-19T06:31:47;31.42;;;27.42;;
35745;SDS011;21870;42.812;74.628;2023-04-19T06:34:14;33.58;;;28.98;;
35745;SDS011;21870;42.812;74.628;2023-04-19T06:36:40;38.75;;;30.30;;
35745;SDS011;21870;42.812;74.628;2023-04-19T06:39:06;35.92;;;28.73;;
35745;SDS011;21870;42.812;74.628;2023-04-19T06:41:32;32.40;;;28.83;;
35745;SDS011;21870;42.812;74.628;2023-04-19T06:43:58;39.67;;;30.08;;
35745;SDS011;21870;42.812;74.628;2023-04-19T06:46:24;34.47;;;28.58;;
35745;SDS011;21870;42.812;74.628;2023-04-19T06:48:51;33.50;;;29.75;;
35745;SDS011;21870;42.812;74.628;2023-04-19T06:51:17;37.95;;;27.85;;
35745;SDS011;21870;42.812;74.628;2023-04-19T06:53:43;33.95;;;30.23;;
35745;SDS011;21870;42.812;74.628;2023-04-19T06:56:10;31.33;;;28.10;;
35745;SDS011;21870;42.812;74.628;2023-04-19T06:58:37;34.95;;;29.20;;
35745;SDS011;21870;42.812;74.628;2023-04-19T07:01:03;35.30;;;29.60;;
35745;SDS011;21870;42.812;74.628;2023-04-19T07:03:30;30.27;;;26.75;;
35745;SDS011;21870;42.812;74.628;2023-04-19T07:05:56;35.58;;;28.05;;
35745;SDS011;21870;42.812;74.628;2023-04-19T07:08:23;33.85;;;29.08;;
35745;SDS011;21870;42.812;74.628;2023-04-19T07:10:49;33.67;;;28.70;;
35745;SDS011;21870;42.812;74.628;2023-04-19T07:13:15;30.33;;;27.23;;
35745;SDS011;21870;42.812;74.628;2023-04-19T07:15:41;34.63;;;28.55;;
35745;SDS011;21870;42.812;74.628;2023-04-19T07:18:07;32.15;;;28.25;;
35745;SDS011;21870;42.812;74.628;2023-04-19T07:20:39;31.23;;;27.40;;
35745;SDS011;21870;42.812;74.628;2023-04-19T07:23:08;40.33;;;28.23;;
35745;SDS011;21870;42.812;74.628;2023-04-19T07:25:35;32.78;;;29.23;;
35745;SDS011;21870;42.812;74.628;2023-04-19T07:28:01;36.58;;;28.73;;
35745;SDS011;21870;42.812;74.628;2023-04-19T07:30:27;34.90;;;29.77;;
35745;SDS011;21870;42.812;74.628;2023-04-19T07:32:53;38.45;;;34.42;;
35745;SDS011;21870;42.812;74.628;2023-04-19T07:35:20;31.92;;;28.75;;
35745;SDS011;21870;42.812;74.628;2023-04-19T07:37:46;33.85;;;28.02;;
35745;SDS011;21870;42.812;74.628;2023-04-19T07:40:12;32.38;;;28.45;;
35745;SDS011;21870;42.812;74.628;2023-04-19T07:42:38;29.02;;;25.80;;
35745;SDS011;21870;42.812;74.628;2023-04-19T07:45:04;39.47;;;28.95;;
35745;SDS011;21870;42.812;74.628;2023-04-19T07:47:31;30.65;;;27.50;;
35745;SDS011;21870;42.812;74.628;2023-04-19T07:49:57;31.20;;;27.92;;
35745;SDS011;21870;42.812;74.628;2023-04-19T07:52:23;29.88;;;25.55;;
35745;SDS011;21870;42.812;74.628;2023-04-19T07:54:49;29.80;;;26.77;;
35745;SDS011;21870;42.812;74.628;2023-04-19T07:57:15;32.05;;;27.77;;
35745;SDS011;21870;42.812;74.628;2023-04-19T07:59:41;32.75;;;25.48;;
35745;SDS011;21870;42.812;74.628;2023-04-19T08:02:08;34.05;;;25.73;;
35745;SDS011;21870;42.812;74.628;2023-04-19T08:04:34;32.38;;;24.45;;
35745;SDS011;21870;42.812;74.628;2023-04-19T08:07:01;29.45;;;25.65;;
35745;SDS011;21870;42.812;74.628;2023-04-19T08:09:28;31.95;;;25.25;;
35745;SDS011;21870;42.812;74.628;2023-04-19T08:11:55;35.72;;;24.67;;
35745;SDS011;21870;42.812;74.628;2023-04-19T08:14:21;27.58;;;24.65;;
35745;SDS011;21870;42.812;74.628;2023-04-19T08:16:47;29.05;;;25.30;;
35745;SDS011;21870;42.812;74.628;2023-04-19T08:19:13;26.50;;;23.42;;
35745;SDS011;21870;42.812;74.628;2023-04-19T08:21:40;34.25;;;26.25;;
35745;SDS011;21870;42.812;74.628;2023-04-19T08:24:06;29.70;;;25.63;;
35745;SDS011;21870;42.812;74.628;2023-04-19T08:26:32;33.85;;;24.80;;
35745;SDS011;21870;42.812;74.628;2023-04-19T08:28:58;29.08;;;24.70;;
35745;SDS011;21870;42.812;74.628;2023-04-19T08:31:24;32.00;;;24.95;;
35745;SDS011;21870;42.812;74.628;2023-04-19T08:33:50;33.58;;;25.02;;
35745;SDS011;21870;42.812;74.628;2023-04-19T08:36:16;28.33;;;24.13;;
35745;SDS011;21870;42.812;74.628;2023-04-19T08:38:42;26.98;;;24.23;;
35745;SDS011;21870;42.812;74.628;2023-04-19T08:41:10;26.98;;;24.17;;
35745;SDS011;21870;42.812;74.628;2023-04-19T08:43:37;27.88;;;23.38;;
35745;SDS011;21870;42.812;74.628;2023-04-19T08:46:07;28.92;;;25.70;;
35745;SDS011;21870;42.812;74.628;2023-04-19T08:48:35;29.15;;;26.20;;
35745;SDS011;21870;42.812;74.628;2023-04-19T08:51:02;26.63;;;23.77;;
35745;SDS011;21870;42.812;74.628;2023-04-19T08:53:28;27.75;;;23.00;;
35745;SDS011;21870;42.812;74.628;2023-04-19T08:55:55;30.80;;;22.60;;
35745;SDS011;21870;42.812;74.628;2023-04-19T08:58:25;23.88;;;21.58;;
35745;SDS011;21870;42.812;74.628;2023-04-19T09:00:54;25.48;;;22.92;;
35745;SDS011;21870;42.812;74.628;2023-04-19T09:03:22;36.30;;;23.58;;
35745;SDS011;21870;42.812;74.628;2023-04-19T09:05:48;24.77;;;22.13;;
35745;SDS011;21870;42.812;74.628;2023-04-19T09:10:59;26.42;;;23.90;;
35745;SDS011;21870;42.812;74.628;2023-04-19T09:13:26;25.52;;;22.27;;
35745;SDS011;21870;42.812;74.628;2023-04-19T09:15:53;25.40;;;22.65;;
35745;SDS011;21870;42.812;74.628;2023-04-19T09:18:24;26.90;;;22.10;;
35745;SDS011;21870;42.812;74.628;2023-04-19T09:20:51;26.52;;;23.80;;
35745;SDS011;21870;42.812;74.628;2023-04-19T09:23:25;27.25;;;24.58;;
35745;SDS011;21870;42.812;74.628;2023-04-19T09:25:56;24.92;;;22.52;;
35745;SDS011;21870;42.812;74.628;2023-04-19T09:28:27;25.83;;;23.40;;
35745;SDS011;21870;42.812;74.628;2023-04-19T09:30:53;27.27;;;24.30;;
35745;SDS011;21870;42.812;74.628;2023-04-19T09:33:33;26.92;;;24.15;;
35745;SDS011;21870;42.812;74.628;2023-04-19T09:36:04;25.13;;;22.67;;
35745;SDS011;21870;42.812;74.628;2023-04-19T09:38:47;27.83;;;24.10;;
35745;SDS011;21870;42.812;74.628;2023-04-19T09:41:15;27.45;;;24.08;;
35745;SDS011;21870;42.812;74.628;2023-04-19T09:43:45;25.17;;;22.98;;
35745;SDS011;21870;42.812;74.628;2023-04-19T09:51:51;24.92;;;22.42;;
35745;SDS011;21870;42.812;74.628;2023-04-19T09:54:18;27.98;;;24.13;;
35745;SDS011;21870;42.812;74.628;2023-04-19T09:56:46;24.33;;;22.08;;
35745;SDS011;21870;42.812;74.628;2023-04-19T09:59:13;25.77;;;23.20;;
35745;SDS011;21870;42.812;74.628;2023-04-19T10:01:43;24.15;;;21.73;;
35745;SDS011;21870;42.812;74.628;2023-04-19T10:04:11;25.58;;;22.90;;
35745;SDS011;21870;42.812;74.628;2023-04-19T10:06:45;27.05;;;24.15;;
35745;SDS011;21870;42.812;74.628;2023-04-19T10:09:16;25.58;;;23.05;;
35745;SDS011;21870;42.812;74.628;2023-04-19T10:11:46;25.02;;;22.50;;
35745;SDS011;21870;42.812;74.628;2023-04-19T10:14:14;26.10;;;23.17;;
35745;SDS011;21870;42.812;74.628;2023-04-19T10:16:41;26.63;;;24.08;;
35745;SDS011;21870;42.812;74.628;2023-04-19T10:19:08;26.33;;;23.83;;
35745;SDS011;21870;42.812;74.628;2023-04-19T10:21:40;25.92;;;23.45;;
35745;SDS011;21870;42.812;74.628;2023-04-19T10:24:07;27.10;;;24.23;;
35745;SDS011;21870;42.812;74.628;2023-04-19T10:30:09;33.40;;;24.50;;
35745;SDS011;21870;42.812;74.628;2023-04-19T10:32:20;26.50;;;22.45;;
35745;SDS011;21870;42.812;74.628;2023-04-19T10:34:50;22.77;;;20.63;;
35745;SDS011;21870;42.812;74.628;2023-04-19T10:37:24;25.17;;;22.45;;
35745;SDS011;21870;42.812;74.628;2023-04-19T10:39:50;26.08;;;23.58;;
35745;SDS011;21870;42.812;74.628;2023-04-19T10:42:17;25.48;;;23.30;;
35745;SDS011;21870;42.812;74.628;2023-04-19T10:47:47;28.88;;;22.23;;
35745;SDS011;21870;42.812;74.628;2023-04-19T10:50:16;24.90;;;22.08;;
35745;SDS011;21870;42.812;74.628;2023-04-19T10:52:42;25.40;;;22.92;;
35745;SDS011;21870;42.812;74.628;2023-04-19T10:55:09;23.98;;;21.73;;
35745;SDS011;21870;42.812;74.628;2023-04-19T10:58:01;22.17;;;20.05;;
35745;SDS011;21870;42.812;74.628;2023-04-19T11:00:32;38.10;;;22.20;;
35745;SDS011;21870;42.812;74.628;2023-04-19T11:03:00;26.35;;;22.13;;
35745;SDS011;21870;42.812;74.628;2023-04-19T11:06:14;31.38;;;23.00;;
35745;SDS011;21870;42.812;74.628;2023-04-19T11:08:43;22.00;;;19.90;;
35745;SDS011;21870;42.812;74.628;2023-04-19T11:11:09;21.50;;;18.98;;
35745;SDS011;21870;42.812;74.628;2023-04-19T11:13:36;29.05;;;21.75;;
35745;SDS011;21870;42.812;74.628;2023-04-19T11:16:08;28.40;;;20.20;;
35745;SDS011;21870;42.812;74.628;2023-04-19T11:18:34;23.85;;;19.30;;
35745;SDS011;21870;42.812;74.628;2023-04-19T11:21:01;33.33;;;20.17;;
35745;SDS011;21870;42.812;74.628;2023-04-19T11:23:27;29.17;;;19.00;;
35745;SDS011;21870;42.812;74.628;2023-04-19T11:25:53;28.20;;;19.27;;
35745;SDS011;21870;42.812;74.628;2023-04-19T11:28:20;27.40;;;20.73;;
35745;SDS011;21870;42.812;74.628;2023-04-19T11:30:46;28.75;;;21.45;;
35745;SDS011;21870;42.812;74.628;2023-04-19T11:33:13;23.20;;;19.20;;
35745;SDS011;21870;42.812;74.628;2023-04-19T11:35:39;26.92;;;18.77;;
35745;SDS011;21870;42.812;74.628;2023-04-19T11:38:08;19.83;;;17.73;;
35745;SDS011;21870;42.812;74.628;2023-04-19T11:40:38;26.23;;;19.38;;
35745;SDS011;21870;42.812;74.628;2023-04-19T11:43:04;22.88;;;18.88;;
35745;SDS011;21870;42.812;74.628;2023-04-19T11:45:33;23.25;;;18.15;;
35745;SDS011;21870;42.812;74.628;2023-04-19T11:48:01;23.58;;;18.90;;
35745;SDS011;21870;42.812;74.628;2023-04-19T11:52:55;19.48;;;17.75;;
35745;SDS011;21870;42.812;74.628;2023-04-19T11:55:22;20.00;;;17.55;;
35745;SDS011;21870;42.812;74.628;2023-04-19T11:57:48;20.60;;;17.02;;
35745;SDS011;21870;42.812;74.628;2023-04-19T12:00:14;18.48;;;16.85;;
35745;SDS011;21870;42.812;74.628;2023-04-19T12:02:41;19.85;;;17.58;;
35745;SDS011;21870;42.812;74.628;2023-04-19T12:05:10;25.15;;;18.73;;
35745;SDS011;21870;42.812;74.628;2023-04-19T12:10:28;20.27;;;18.25;;
35745;SDS011;21870;42.812;74.628;2023-04-19T12:12:57;36.67;;;19.73;;
35745;SDS011;21870;42.812;74.628;2023-04-19T12:15:39;31.17;;;20.40;;
35745;SDS011;21870;42.812;74.628;2023-04-19T12:18:09;20.63;;;18.13;;
35745;SDS011;21870;42.812;74.628;2023-04-19T12:20:36;21.17;;;19.23;;
35745;SDS011;21870;42.812;74.628;2023-04-19T12:23:03;25.58;;;19.92;;
35745;SDS011;21870;42.812;74.628;2023-04-19T12:25:29;23.60;;;17.40;;
35745;SDS011;21870;42.812;74.628;2023-04-19T12:27:57;25.02;;;18.88;;
35745;SDS011;21870;42.812;74.628;2023-04-19T12:30:25;29.17;;;17.88;;
35745;SDS011;21870;42.812;74.628;2023-04-19T12:32:51;18.65;;;16.83;;
35745;SDS011;21870;42.812;74.628;2023-04-19T12:35:22;18.80;;;16.90;;
35745;SDS011;21870;42.812;74.628;2023-04-19T12:37:53;18.67;;;16.75;;
35745;SDS011;21870;42.812;74.628;2023-04-19T12:40:19;20.02;;;17.98;;
35745;SDS011;21870;42.812;74.628;2023-04-19T12:42:46;31.25;;;18.40;;
35745;SDS011;21870;42.812;74.628;2023-04-19T12:45:13;27.30;;;18.15;;
35745;SDS011;21870;42.812;74.628;2023-04-19T12:47:39;32.20;;;19.00;;
35745;SDS011;21870;42.812;74.628;2023-04-19T12:50:06;23.67;;;20.00;;
35745;SDS011;21870;42.812;74.628;2023-04-19T12:52:33;24.05;;;19.25;;
35745;SDS011;21870;42.812;74.628;2023-04-19T12:55:00;21.20;;;18.00;;
35745;SDS011;21870;42.812;74.628;2023-04-19T12:57:26;26.40;;;17.90;;
35745;SDS011;21870;42.812;74.628;2023-04-19T12:59:52;24.98;;;19.60;;
35745;SDS011;21870;42.812;74.628;2023-04-19T13:02:18;23.30;;;18.75;;
35745;SDS011;21870;42.812;74.628;2023-04-19T13:04:45;28.50;;;19.30;;
35745;SDS011;21870;42.812;74.628;2023-04-19T13:07:11;20.63;;;18.73;;
35745;SDS011;21870;42.812;74.628;2023-04-19T13:09:37;22.33;;;18.20;;
35745;SDS011;21870;42.812;74.628;2023-04-19T13:12:06;20.88;;;18.88;;
35745;SDS011;21870;42.812;74.628;2023-04-19T13:14:32;22.98;;;18.55;;
35745;SDS011;21870;42.812;74.628;2023-04-19T13:16:58;23.00;;;20.08;;
35745;SDS011;21870;42.812;74.628;2023-04-19T13:19:25;29.70;;;18.80;;
35745;SDS011;21870;42.812;74.628;2023-04-19T13:21:51;29.02;;;17.35;;
35745;SDS011;21870;42.812;74.628;2023-04-19T13:24:17;61.92;;;21.42;;
35745;SDS011;21870;42.812;74.628;2023-04-19T13:26:43;24.23;;;17.58;;
35745;SDS011;21870;42.812;74.628;2023-04-19T13:29:12;22.20;;;18.30;;
35745;SDS011;21870;42.812;74.628;2023-04-19T13:31:38;22.65;;;18.17;;
35745;SDS011;21870;42.812;74.628;2023-04-19T13:34:04;39.67;;;20.27;;
35745;SDS011;21870;42.812;74.628;2023-04-19T13:36:30;44.95;;;20.33;;
35745;SDS011;21870;42.812;74.628;2023-04-19T13:38:56;28.67;;;19.08;;
35745;SDS011;21870;42.812;74.628;2023-04-19T13:41:22;35.40;;;20.23;;
35745;SDS011;21870;42.812;74.628;2023-04-19T13:43:48;28.60;;;19.80;;
35745;SDS011;21870;42.812;74.628;2023-04-19T13:46:14;53.30;;;31.92;;
35745;SDS011;21870;42.812;74.628;2023-04-19T13:48:40;45.72;;;31.92;;
35745;SDS011;21870;42.812;74.628;2023-04-19T13:51:06;41.33;;;27.52;;
35745;SDS011;21870;42.812;74.628;2023-04-19T13:53:33;28.13;;;23.58;;
35745;SDS011;21870;42.812;74.628;2023-04-19T13:55:59;48.70;;;25.10;;
35745;SDS011;21870;42.812;74.628;2023-04-19T13:58:25;48.17;;;24.92;;
35745;SDS011;21870;42.812;74.628;2023-04-19T14:00:51;30.77;;;21.98;;
35745;SDS011;21870;42.812;74.628;2023-04-19T14:03:18;35.75;;;25.20;;
35745;SDS011;21870;42.812;74.628;2023-04-19T14:05:46;44.20;;;33.63;;
35745;SDS011;21870;42.812;74.628;2023-04-19T14:08:12;55.83;;;43.30;;
35745;SDS011;21870;42.812;74.628;2023-04-19T14:10:38;38.28;;;32.67;;
35745;SDS011;21870;42.812;74.628;2023-04-19T14:13:04;27.60;;;24.85;;
35745;SDS011;21870;42.812;74.628;2023-04-19T14:15:31;25.02;;;21.50;;
35745;SDS011;21870;42.812;74.628;2023-04-19T14:17:57;23.73;;;20.05;;
35745;SDS011;21870;42.812;74.628;2023-04-19T14:20:26;24.52;;;18.70;;
35745;SDS011;21870;42.812;74.628;2023-04-19T14:22:52;24.23;;;19.08;;
35745;SDS011;21870;42.812;74.628;2023-04-19T14:25:23;25.42;;;18.52;;
35745;SDS011;21870;42.812;74.628;2023-04-19T14:27:49;26.88;;;19.08;;